AXY51C HUEN-HKMO
Flight info
| Callsign | AXY51C |
|---|---|
| Flight time | N/A |
| Altitude | 41000 |
| Route | XAKUP2B OKSUM UL434 GADLA |
| Aircraft | A343/H-SDE2E3FGHIJ4J5M1RWXY/LB1D1 |
Departure
| Time | 2026-05-06 19:10 |
|---|---|
| Airport | Entebbe International Airport (HUEN) |
Arrival
| Time | N/A |
|---|---|
| Airport | Moi International Airport (HKMO) |
| Time | Latitude | Longitude | Altitude | Speed | Heading |
|---|---|---|---|---|---|
| 2026-05-06 18:12 | 0.04275 | 32.44223 | 3784 ft | 0 kts | 82° |
| 2026-05-06 18:58 | 0.04273 | 32.44210 | 3784 ft | 4 kts | 82° |
| 2026-05-06 18:58 | 0.04269 | 32.44183 | 3790 ft | 4 kts | 82° |
| 2026-05-06 18:58 | 0.04266 | 32.44162 | 3794 ft | 4 kts | 77° |
| 2026-05-06 18:59 | 0.04254 | 32.44142 | 3796 ft | 4 kts | 28° |
| 2026-05-06 18:59 | 0.04237 | 32.44131 | 3790 ft | 3 kts | 43° |
| 2026-05-06 18:59 | 0.04221 | 32.44110 | 3788 ft | 4 kts | 69° |
| 2026-05-06 18:59 | 0.04215 | 32.44087 | 3789 ft | 1 kts | 81° |
| 2026-05-06 19:03 | 0.04216 | 32.44096 | 3791 ft | 3 kts | 80° |
| 2026-05-06 19:03 | 0.04238 | 32.44130 | 3789 ft | 7 kts | 37° |
| 2026-05-06 19:03 | 0.04280 | 32.44134 | 3794 ft | 6 kts | 352° |
| 2026-05-06 19:04 | 0.04325 | 32.44127 | 3785 ft | 0 kts | 351° |
| 2026-05-06 19:04 | 0.04329 | 32.44127 | 3786 ft | 2 kts | 351° |
| 2026-05-06 19:04 | 0.04349 | 32.44124 | 3787 ft | 4 kts | 352° |
| 2026-05-06 19:04 | 0.04390 | 32.44118 | 3793 ft | 8 kts | 352° |
| 2026-05-06 19:05 | 0.04453 | 32.44109 | 3788 ft | 10 kts | 352° |
| 2026-05-06 19:05 | 0.04533 | 32.44097 | 3790 ft | 13 kts | 352° |
| 2026-05-06 19:05 | 0.04629 | 32.44084 | 3786 ft | 15 kts | 352° |
| 2026-05-06 19:05 | 0.04737 | 32.44069 | 3784 ft | 16 kts | 352° |
| 2026-05-06 19:06 | 0.04850 | 32.44046 | 3793 ft | 16 kts | 330° |
| 2026-05-06 19:06 | 0.04916 | 32.44009 | 3795 ft | 8 kts | 344° |
| 2026-05-06 19:06 | 0.04968 | 32.43999 | 3793 ft | 8 kts | 351° |
| 2026-05-06 19:06 | 0.05030 | 32.43990 | 3794 ft | 12 kts | 352° |
| 2026-05-06 19:07 | 0.05138 | 32.43976 | 3793 ft | 18 kts | 352° |
| 2026-05-06 19:07 | 0.05263 | 32.43956 | 3795 ft | 18 kts | 344° |
| 2026-05-06 19:07 | 0.05348 | 32.43869 | 3798 ft | 19 kts | 304° |
| 2026-05-06 19:07 | 0.05421 | 32.43757 | 3787 ft | 19 kts | 301° |
| 2026-05-06 19:08 | 0.05446 | 32.43719 | 3794 ft | 1 kts | 305° |
| 2026-05-06 19:08 | 0.05466 | 32.43691 | 3793 ft | 7 kts | 305° |
| 2026-05-06 19:08 | 0.05486 | 32.43651 | 3794 ft | 2 kts | 265° |
| 2026-05-06 19:08 | 0.05471 | 32.43638 | 3792 ft | 4 kts | 216° |
| 2026-05-06 19:09 | 0.05425 | 32.43640 | 3788 ft | 12 kts | 173° |
| 2026-05-06 19:09 | 0.05181 | 32.43671 | 3790 ft | 70 kts | 172° |
| 2026-05-06 19:09 | 0.04464 | 32.43775 | 3797 ft | 135 kts | 171° |
| 2026-05-06 19:09 | 0.03351 | 32.43928 | 3864 ft | 181 kts | 173° |
| 2026-05-06 19:10 | 0.02105 | 32.44106 | 4613 ft | 183 kts | 172° |
| 2026-05-06 19:10 | 0.00833 | 32.44304 | 5383 ft | 188 kts | 171° |
| 2026-05-06 19:10 | -0.00578 | 32.44534 | 5592 ft | 224 kts | 170° |
| 2026-05-06 19:10 | -0.02218 | 32.44814 | 6041 ft | 250 kts | 170° |
| 2026-05-06 19:11 | -0.03974 | 32.45115 | 6819 ft | 262 kts | 169° |
| 2026-05-06 19:11 | -0.05706 | 32.45696 | 7613 ft | 270 kts | 153° |
| 2026-05-06 19:11 | -0.07222 | 32.46826 | 8510 ft | 277 kts | 131° |
| 2026-05-06 19:11 | -0.08282 | 32.48442 | 9510 ft | 281 kts | 119° |
| 2026-05-06 19:12 | -0.09266 | 32.50160 | 10375 ft | 288 kts | 119° |
| 2026-05-06 19:12 | -0.10317 | 32.51949 | 10893 ft | 309 kts | 120° |
| 2026-05-06 19:12 | -0.11457 | 32.53838 | 11402 ft | 327 kts | 121° |
| 2026-05-06 19:12 | -0.12715 | 32.55783 | 12054 ft | 338 kts | 122° |
| 2026-05-06 19:13 | -0.14016 | 32.57769 | 12805 ft | 345 kts | 122° |
| 2026-05-06 19:13 | -0.15327 | 32.59807 | 13568 ft | 352 kts | 121° |
| 2026-05-06 19:13 | -0.16651 | 32.61895 | 14237 ft | 359 kts | 121° |
| 2026-05-06 19:13 | -0.17988 | 32.64019 | 14950 ft | 362 kts | 120° |
| 2026-05-06 19:14 | -0.19331 | 32.66160 | 15735 ft | 365 kts | 120° |
| 2026-05-06 19:14 | -0.20685 | 32.68324 | 16502 ft | 368 kts | 120° |
| 2026-05-06 19:14 | -0.22048 | 32.70504 | 17276 ft | 372 kts | 120° |
| 2026-05-06 19:14 | -0.23424 | 32.72706 | 18068 ft | 375 kts | 120° |
| 2026-05-06 19:15 | -0.24811 | 32.74929 | 18773 ft | 379 kts | 120° |
| 2026-05-06 19:15 | -0.26214 | 32.77176 | 19433 ft | 383 kts | 120° |
| 2026-05-06 19:15 | -0.27610 | 32.79413 | 20095 ft | 386 kts | 120° |
| 2026-05-06 19:15 | -0.29040 | 32.81703 | 20755 ft | 390 kts | 121° |
| 2026-05-06 19:16 | -0.30484 | 32.84016 | 21424 ft | 394 kts | 121° |
| 2026-05-06 19:16 | -0.31939 | 32.86346 | 22084 ft | 397 kts | 121° |
| 2026-05-06 19:16 | -0.33408 | 32.88700 | 22708 ft | 401 kts | 121° |
| 2026-05-06 19:16 | -0.34888 | 32.91071 | 23338 ft | 404 kts | 121° |
| 2026-05-06 19:17 | -0.36383 | 32.93467 | 23885 ft | 408 kts | 121° |
| 2026-05-06 19:17 | -0.37891 | 32.95883 | 24382 ft | 412 kts | 121° |
| 2026-05-06 19:17 | -0.39414 | 32.98323 | 24876 ft | 415 kts | 121° |
| 2026-05-06 19:17 | -0.40950 | 33.00784 | 25383 ft | 418 kts | 121° |
| 2026-05-06 19:18 | -0.42493 | 33.03256 | 25892 ft | 421 kts | 121° |
| 2026-05-06 19:18 | -0.44050 | 33.05751 | 26404 ft | 424 kts | 121° |
| 2026-05-06 19:18 | -0.45618 | 33.08262 | 26877 ft | 428 kts | 121° |
| 2026-05-06 19:18 | -0.47195 | 33.10789 | 27349 ft | 431 kts | 121° |
| 2026-05-06 19:19 | -0.48789 | 33.13343 | 27846 ft | 434 kts | 121° |
| 2026-05-06 19:19 | -0.50372 | 33.15879 | 28331 ft | 437 kts | 121° |
| 2026-05-06 19:19 | -0.51984 | 33.18464 | 28765 ft | 441 kts | 121° |
| 2026-05-06 19:19 | -0.53636 | 33.21111 | 29183 ft | 446 kts | 121° |
| 2026-05-06 19:20 | -0.55259 | 33.23711 | 29624 ft | 449 kts | 121° |
| 2026-05-06 19:20 | -0.56918 | 33.26369 | 30031 ft | 452 kts | 121° |
| 2026-05-06 19:20 | -0.58584 | 33.29039 | 30407 ft | 455 kts | 121° |
| 2026-05-06 19:20 | -0.60269 | 33.31733 | 30801 ft | 457 kts | 122° |
| 2026-05-06 19:21 | -0.62076 | 33.34361 | 31173 ft | 459 kts | 126° |
| 2026-05-06 19:21 | -0.64002 | 33.36921 | 31567 ft | 461 kts | 127° |
| 2026-05-06 19:21 | -0.65962 | 33.39442 | 32090 ft | 459 kts | 128° |
| 2026-05-06 19:21 | -0.67914 | 33.41948 | 32595 ft | 457 kts | 127° |
| 2026-05-06 19:22 | -0.69851 | 33.44460 | 33117 ft | 455 kts | 127° |
| 2026-05-06 19:22 | -0.71767 | 33.46979 | 33615 ft | 454 kts | 127° |
| 2026-05-06 19:22 | -0.73658 | 33.49488 | 34104 ft | 451 kts | 127° |
| 2026-05-06 19:22 | -0.75534 | 33.51994 | 34524 ft | 450 kts | 127° |
| 2026-05-06 19:23 | -0.77405 | 33.54501 | 34856 ft | 450 kts | 127° |
| 2026-05-06 19:23 | -0.79279 | 33.57013 | 35236 ft | 450 kts | 127° |
| 2026-05-06 19:23 | -0.81151 | 33.59523 | 35583 ft | 450 kts | 127° |
| 2026-05-06 19:23 | -0.83013 | 33.62020 | 35986 ft | 448 kts | 127° |
| 2026-05-06 19:24 | -0.84872 | 33.64512 | 36328 ft | 448 kts | 127° |
| 2026-05-06 19:24 | -0.86753 | 33.67029 | 36507 ft | 452 kts | 127° |
| 2026-05-06 19:24 | -0.88651 | 33.69560 | 36585 ft | 459 kts | 127° |
| 2026-05-06 19:25 | -0.92550 | 33.74717 | 36778 ft | 470 kts | 127° |
| 2026-05-06 19:25 | -0.94536 | 33.77318 | 37037 ft | 471 kts | 127° |
| 2026-05-06 19:25 | -0.96528 | 33.79906 | 37403 ft | 469 kts | 127° |
| 2026-05-06 19:25 | -0.98536 | 33.82482 | 37694 ft | 470 kts | 128° |
| 2026-05-06 19:26 | -1.00568 | 33.85063 | 37818 ft | 475 kts | 128° |